createdAt,value
2022-10-22T00:00:15.598Z,12.40
2022-10-22T00:02:43.288Z,12.30
2022-10-22T00:05:11.422Z,12.30
2022-10-22T00:07:38.832Z,12.20
2022-10-22T00:10:08.154Z,12.30
2022-10-22T00:12:35.500Z,12.30
2022-10-22T00:15:03.915Z,12.30
2022-10-22T00:17:30.996Z,12.40
2022-10-22T00:19:58.303Z,12.30
2022-10-22T00:22:25.340Z,12.30
2022-10-22T00:24:52.352Z,12.30
2022-10-22T00:27:19.335Z,12.20
2022-10-22T00:29:46.425Z,12.20
2022-10-22T00:32:15.276Z,12.20
2022-10-22T00:34:42.352Z,12.00
2022-10-22T00:37:09.429Z,12.00
2022-10-22T00:39:36.381Z,11.90
2022-10-22T00:42:03.644Z,11.90
2022-10-22T00:45:07.701Z,11.90
2022-10-22T00:47:52.492Z,11.80
2022-10-22T00:50:30.205Z,11.80
2022-10-22T00:52:58.695Z,11.90
2022-10-22T00:55:28.037Z,11.80
2022-10-22T00:57:56.963Z,11.90
2022-10-22T01:00:24.887Z,11.90
2022-10-22T01:02:53.585Z,11.80
2022-10-22T01:05:21.487Z,11.80
2022-10-22T01:07:52.361Z,11.80
2022-10-22T01:10:49.345Z,11.80
2022-10-22T01:13:29.369Z,11.90
2022-10-22T01:16:07.286Z,11.90
2022-10-22T01:18:44.506Z,12.10
2022-10-22T01:21:34.039Z,12.00
2022-10-22T01:24:24.471Z,12.00
2022-10-22T01:27:10.293Z,12.00
2022-10-22T01:29:52.087Z,12.10
2022-10-22T01:32:23.738Z,12.10
2022-10-22T01:34:56.465Z,12.10
2022-10-22T01:37:28.720Z,12.10
2022-10-22T01:39:58.211Z,12.10
2022-10-22T01:42:25.278Z,12.00
2022-10-22T01:44:52.475Z,12.10
2022-10-22T01:47:53.444Z,12.10
2022-10-22T01:50:32.157Z,12.10
2022-10-22T01:53:28.631Z,12.10
2022-10-22T01:56:13.258Z,12.10
2022-10-22T01:59:11.537Z,12.10
2022-10-22T02:01:55.857Z,12.20
2022-10-22T02:04:33.971Z,12.20
2022-10-22T02:07:06.770Z,12.20
2022-10-22T02:09:35.057Z,12.20
2022-10-22T02:12:07.225Z,12.20
2022-10-22T02:14:38.414Z,12.20
2022-10-22T02:17:11.607Z,12.20
2022-10-22T02:19:42.320Z,12.20
2022-10-22T02:22:12.630Z,12.20
2022-10-22T02:24:39.658Z,12.20
2022-10-22T02:27:31.996Z,12.20
2022-10-22T02:30:10.569Z,12.10
2022-10-22T02:33:17.910Z,12.10
2022-10-22T02:35:46.000Z,12.10
2022-10-22T02:38:13.838Z,12.00
2022-10-22T02:40:41.481Z,12.00
2022-10-22T02:43:08.561Z,12.00
2022-10-22T02:45:35.806Z,12.00
2022-10-22T02:48:03.413Z,12.00
2022-10-22T02:50:30.584Z,12.00
2022-10-22T02:52:57.693Z,12.10
2022-10-22T02:55:24.996Z,12.00
2022-10-22T02:57:52.051Z,12.00
2022-10-22T03:00:19.311Z,11.90
2022-10-22T03:02:46.353Z,11.90
2022-10-22T03:05:14.121Z,11.80
2022-10-22T03:07:41.454Z,11.80
2022-10-22T03:10:09.400Z,11.80
2022-10-22T03:12:36.431Z,11.80
2022-10-22T03:15:03.792Z,11.80
2022-10-22T03:17:30.792Z,11.80
2022-10-22T03:19:57.803Z,11.80
2022-10-22T03:22:31.469Z,11.80
2022-10-22T03:25:04.649Z,11.90
2022-10-22T03:27:31.612Z,11.90
2022-10-22T03:29:59.655Z,11.90
2022-10-22T03:32:26.617Z,11.90
2022-10-22T03:34:53.765Z,11.90
2022-10-22T03:37:20.992Z,12.00
2022-10-22T03:39:48.080Z,12.00
2022-10-22T03:42:16.186Z,11.90
2022-10-22T03:44:43.644Z,11.90
2022-10-22T03:47:10.872Z,12.00
2022-10-22T03:49:37.908Z,11.90
2022-10-22T03:52:10.353Z,11.80
2022-10-22T03:57:10.407Z,11.80
2022-10-22T03:59:41.290Z,11.80
2022-10-22T04:02:09.602Z,11.70
2022-10-22T04:04:37.165Z,11.80
2022-10-22T04:07:05.916Z,11.70
2022-10-22T04:09:35.099Z,11.80
2022-10-22T04:12:02.507Z,11.70
2022-10-22T04:14:29.553Z,11.80
2022-10-22T04:16:56.680Z,11.70
2022-10-22T04:19:23.848Z,11.70
2022-10-22T04:21:50.810Z,11.70
2022-10-22T04:24:17.784Z,11.70
2022-10-22T04:26:44.815Z,11.70
2022-10-22T04:29:15.911Z,11.70
2022-10-22T04:31:43.677Z,11.70
2022-10-22T04:34:10.616Z,11.60
2022-10-22T04:36:37.669Z,11.60
2022-10-22T04:39:05.742Z,11.70
2022-10-22T04:41:38.738Z,11.60
2022-10-22T04:44:10.959Z,11.60
2022-10-22T04:46:42.254Z,11.60
2022-10-22T04:49:09.350Z,11.60
2022-10-22T04:51:36.304Z,11.60
2022-10-22T04:54:03.385Z,11.50
2022-10-22T04:56:32.180Z,11.60
2022-10-22T04:59:06.413Z,11.60
2022-10-22T05:01:43.468Z,11.50
2022-10-22T05:04:16.889Z,11.60
2022-10-22T05:06:44.502Z,11.60
2022-10-22T05:09:18.727Z,11.70
2022-10-22T05:11:49.673Z,11.60
2022-10-22T05:14:20.760Z,11.60
2022-10-22T05:16:48.713Z,11.70
2022-10-22T05:19:21.749Z,11.70
2022-10-22T05:21:48.746Z,11.70
2022-10-22T05:24:15.838Z,11.70
2022-10-22T05:26:42.769Z,11.60
2022-10-22T05:29:09.929Z,11.60
2022-10-22T05:31:36.979Z,11.60
2022-10-22T05:34:04.042Z,11.60
2022-10-22T05:36:31.068Z,11.70
2022-10-22T05:38:58.353Z,11.70
2022-10-22T05:41:27.164Z,11.70
2022-10-22T05:43:59.545Z,11.70
2022-10-22T05:46:29.877Z,11.70
2022-10-22T05:49:03.321Z,11.80
2022-10-22T05:51:33.782Z,11.80
2022-10-22T05:54:07.425Z,11.80
2022-10-22T05:56:35.081Z,11.80
2022-10-22T06:01:32.816Z,11.80
2022-10-22T06:04:03.979Z,11.90
2022-10-22T06:06:49.322Z,11.90
2022-10-22T06:09:28.215Z,11.90
2022-10-22T06:11:56.993Z,11.90
2022-10-22T06:14:24.745Z,11.90
2022-10-22T06:16:52.178Z,11.90
2022-10-22T06:19:21.495Z,11.90
2022-10-22T06:21:49.140Z,11.90
2022-10-22T06:24:16.651Z,11.90
2022-10-22T06:26:43.843Z,11.90
2022-10-22T06:29:11.278Z,11.90
2022-10-22T06:31:38.312Z,12.00
2022-10-22T06:34:10.150Z,12.00
2022-10-22T06:36:37.928Z,12.00
2022-10-22T06:39:05.783Z,12.00
2022-10-22T06:41:33.041Z,12.10
2022-10-22T06:44:00.073Z,12.10
2022-10-22T06:46:27.183Z,12.10
2022-10-22T06:49:04.213Z,12.10
2022-10-22T06:51:32.022Z,12.20
2022-10-22T06:53:59.255Z,12.20
2022-10-22T06:56:29.324Z,12.30
2022-10-22T06:58:58.341Z,12.30
2022-10-22T07:01:31.756Z,12.30
2022-10-22T07:03:59.139Z,12.40
2022-10-22T07:06:28.362Z,12.40
2022-10-22T07:08:59.939Z,12.50
2022-10-22T07:11:39.341Z,12.50
2022-10-22T07:14:06.460Z,12.60
2022-10-22T07:16:33.651Z,12.60
2022-10-22T07:19:04.098Z,12.70
2022-10-22T07:21:31.678Z,12.70
2022-10-22T07:23:59.345Z,12.80
2022-10-22T07:26:28.464Z,12.90
2022-10-22T07:28:55.606Z,12.90
2022-10-22T07:31:22.979Z,13.00
2022-10-22T07:33:49.901Z,13.10
2022-10-22T07:36:17.981Z,13.10
2022-10-22T07:38:54.244Z,13.20
2022-10-22T07:41:21.237Z,13.20
2022-10-22T07:43:48.183Z,13.30
2022-10-22T07:46:15.429Z,13.30
2022-10-22T07:48:42.607Z,13.40
2022-10-22T07:51:09.807Z,13.40
2022-10-22T07:53:37.156Z,13.50
2022-10-22T07:56:04.461Z,13.50
2022-10-22T07:58:31.522Z,13.50
2022-10-22T08:01:05.799Z,13.50
2022-10-22T08:03:33.555Z,13.50
2022-10-22T08:06:01.785Z,13.60
2022-10-22T08:08:30.840Z,13.60
2022-10-22T08:11:00.969Z,13.60
2022-10-22T08:13:30.571Z,13.70
2022-10-22T08:16:00.261Z,13.70
2022-10-22T08:18:28.401Z,13.70
2022-10-22T08:20:55.474Z,13.70
2022-10-22T08:23:26.000Z,13.70
2022-10-22T08:25:57.171Z,13.70
2022-10-22T08:28:24.485Z,13.70
2022-10-22T08:30:51.718Z,13.80
2022-10-22T08:33:18.766Z,13.90
2022-10-22T08:35:52.687Z,14.00
2022-10-22T08:38:20.279Z,14.10
2022-10-22T08:40:53.379Z,14.20
2022-10-22T08:43:45.410Z,14.30
2022-10-22T08:46:52.724Z,14.40
2022-10-22T08:49:25.719Z,14.50
2022-10-22T08:51:53.176Z,14.60
2022-10-22T08:54:45.076Z,14.70
2022-10-22T08:57:27.509Z,14.80
2022-10-22T09:00:11.234Z,15.00
2022-10-22T09:02:56.603Z,15.10
2022-10-22T09:05:39.393Z,15.10
2022-10-22T09:08:12.761Z,15.10
2022-10-22T09:10:46.766Z,15.30
2022-10-22T09:13:19.472Z,15.50
2022-10-22T09:16:14.973Z,15.50
2022-10-22T09:19:22.855Z,15.40
2022-10-22T09:22:20.627Z,15.60
2022-10-22T09:24:57.323Z,15.60
2022-10-22T09:27:31.213Z,15.70
2022-10-22T09:29:58.484Z,15.80
2022-10-22T09:32:26.251Z,15.80
2022-10-22T09:34:58.273Z,15.90
2022-10-22T09:37:28.747Z,15.90
2022-10-22T09:39:58.830Z,15.90
2022-10-22T09:42:25.952Z,16.00
2022-10-22T09:44:59.566Z,16.00
2022-10-22T09:50:39.531Z,16.00
2022-10-22T09:53:12.233Z,16.00
2022-10-22T09:55:41.428Z,16.00
2022-10-22T09:58:13.608Z,15.90
2022-10-22T10:00:46.045Z,15.90
2022-10-22T10:03:29.071Z,15.90
2022-10-22T10:06:04.695Z,15.90
2022-10-22T10:08:33.244Z,15.80
2022-10-22T10:11:10.079Z,15.90
2022-10-22T10:14:38.565Z,15.90
2022-10-22T10:18:05.236Z,15.90
2022-10-22T10:20:56.565Z,15.90
2022-10-22T10:23:45.141Z,16.00
2022-10-22T10:26:20.117Z,16.10
2022-10-22T10:29:24.098Z,16.20
2022-10-22T10:32:57.970Z,16.20
2022-10-22T10:35:33.973Z,16.40
2022-10-22T10:38:31.991Z,16.50
2022-10-22T10:41:37.102Z,16.50
2022-10-22T10:44:56.293Z,16.60
2022-10-22T10:48:13.287Z,16.60
2022-10-22T10:51:14.100Z,16.60
2022-10-22T10:54:21.706Z,16.50
2022-10-22T10:56:56.709Z,16.50
2022-10-22T10:59:23.620Z,16.40
2022-10-22T11:02:32.554Z,16.40
2022-10-22T11:05:16.575Z,16.30
2022-10-22T11:07:57.429Z,16.20
2022-10-22T11:10:35.359Z,16.20
2022-10-22T11:13:18.343Z,16.10
2022-10-22T11:16:15.864Z,16.00
2022-10-22T11:19:06.951Z,15.90
2022-10-22T11:21:53.311Z,15.80
2022-10-22T11:24:30.247Z,15.80
2022-10-22T11:27:03.241Z,15.80
2022-10-22T11:29:39.186Z,15.90
2022-10-22T11:32:12.792Z,15.90
2022-10-22T11:34:48.284Z,16.00
2022-10-22T11:37:16.681Z,16.00
2022-10-22T11:40:15.168Z,16.00
2022-10-22T11:42:50.627Z,16.00
2022-10-22T11:45:17.679Z,16.20
2022-10-22T11:47:58.427Z,16.30
2022-10-22T11:50:52.783Z,16.50
2022-10-22T11:53:34.087Z,16.60
2022-10-22T11:56:07.200Z,16.80
2022-10-22T11:58:50.701Z,16.90
2022-10-22T12:01:28.935Z,16.90
2022-10-22T12:03:58.956Z,16.90
2022-10-22T12:06:53.338Z,16.90
2022-10-22T12:09:24.698Z,16.90
2022-10-22T12:11:52.302Z,17.00
2022-10-22T12:14:40.855Z,17.00
2022-10-22T12:17:18.867Z,16.90
2022-10-22T12:19:50.206Z,16.80
2022-10-22T12:22:33.682Z,16.80
2022-10-22T12:25:02.353Z,16.90
2022-10-22T12:27:40.439Z,16.70
2022-10-22T12:30:23.596Z,16.70
2022-10-22T12:32:57.885Z,16.50
2022-10-22T12:35:28.865Z,16.50
2022-10-22T12:38:00.587Z,16.40
2022-10-22T12:40:28.787Z,16.40
2022-10-22T12:43:01.987Z,16.40
2022-10-22T12:45:32.460Z,16.30
2022-10-22T12:48:27.659Z,16.30
2022-10-22T12:51:04.178Z,16.30
2022-10-22T12:53:39.338Z,16.30
2022-10-22T12:56:12.423Z,16.30
2022-10-22T12:59:00.706Z,16.30
2022-10-22T13:01:34.781Z,16.20
2022-10-22T13:04:27.010Z,16.10
2022-10-22T13:07:12.287Z,16.10
2022-10-22T13:09:41.420Z,16.00
2022-10-22T13:12:16.107Z,16.00
2022-10-22T13:14:45.889Z,16.00
2022-10-22T13:17:28.952Z,15.90
2022-10-22T13:19:55.878Z,15.90
2022-10-22T13:22:36.564Z,15.90
2022-10-22T13:25:16.002Z,15.80
2022-10-22T13:27:56.113Z,15.80
2022-10-22T13:30:37.544Z,15.70
2022-10-22T13:33:21.277Z,15.80
2022-10-22T13:35:48.791Z,15.70
2022-10-22T13:38:20.390Z,15.70
2022-10-22T13:40:48.220Z,15.70
2022-10-22T13:43:16.742Z,15.80
2022-10-22T13:45:45.917Z,16.00
2022-10-22T13:48:21.696Z,16.20
2022-10-22T13:50:52.361Z,16.20
2022-10-22T13:53:22.906Z,16.40
2022-10-22T13:55:50.349Z,16.50
2022-10-22T13:58:25.772Z,16.50
2022-10-22T14:01:00.825Z,16.50
2022-10-22T14:03:33.465Z,16.50
2022-10-22T14:06:00.927Z,16.40
2022-10-22T14:08:28.609Z,16.40
2022-10-22T14:10:56.143Z,16.50
2022-10-22T14:13:24.378Z,16.50
2022-10-22T14:15:52.722Z,16.60
2022-10-22T14:18:31.423Z,16.60
2022-10-22T14:21:04.711Z,16.60
2022-10-22T14:23:32.455Z,16.50
2022-10-22T14:26:00.741Z,16.60
2022-10-22T14:28:29.667Z,16.60
2022-10-22T14:30:59.022Z,16.70
2022-10-22T14:33:32.803Z,16.70
2022-10-22T14:36:00.805Z,16.70
2022-10-22T14:38:29.151Z,16.70
2022-10-22T14:40:57.422Z,16.60
2022-10-22T14:43:28.215Z,16.70
2022-10-22T14:45:55.999Z,16.60
2022-10-22T14:48:24.271Z,16.60
2022-10-22T14:50:52.007Z,16.50
2022-10-22T14:53:19.175Z,16.40
2022-10-22T14:55:47.415Z,16.40
2022-10-22T14:58:15.087Z,16.30
2022-10-22T15:00:43.075Z,16.30
2022-10-22T15:03:11.483Z,16.20
2022-10-22T15:05:46.356Z,16.20
2022-10-22T15:08:14.976Z,16.10
2022-10-22T15:10:42.204Z,16.00
2022-10-22T15:13:09.352Z,16.00
2022-10-22T15:15:39.917Z,15.90
2022-10-22T15:18:07.465Z,15.90
2022-10-22T15:20:34.591Z,15.80
2022-10-22T15:23:01.669Z,15.70
2022-10-22T15:25:28.796Z,15.60
2022-10-22T15:28:00.728Z,15.50
2022-10-22T15:30:34.587Z,15.40
2022-10-22T15:33:02.313Z,15.40
2022-10-22T15:35:29.437Z,15.30
2022-10-22T15:37:56.530Z,15.20
2022-10-22T15:40:23.579Z,15.10
2022-10-22T15:42:50.702Z,15.00
2022-10-22T15:45:17.677Z,14.90
2022-10-22T15:47:48.993Z,14.80
2022-10-22T15:50:16.746Z,14.70
2022-10-22T15:52:43.801Z,14.60
2022-10-22T15:57:43.832Z,14.30
2022-10-22T16:00:12.691Z,14.30
2022-10-22T16:02:39.831Z,14.10
2022-10-22T16:05:07.667Z,14.00
2022-10-22T16:07:34.727Z,14.00
2022-10-22T16:10:01.997Z,13.90
2022-10-22T16:12:29.129Z,13.80
2022-10-22T16:14:56.240Z,13.70
2022-10-22T16:17:24.384Z,13.60
2022-10-22T16:19:51.608Z,13.50
2022-10-22T16:22:18.613Z,13.40
2022-10-22T16:24:45.743Z,13.30
2022-10-22T16:27:12.815Z,13.20
2022-10-22T16:29:40.539Z,13.10
2022-10-22T16:32:08.122Z,13.00
2022-10-22T16:34:35.176Z,12.90
2022-10-22T16:37:02.578Z,12.80
2022-10-22T16:39:29.951Z,12.70
2022-10-22T16:41:57.040Z,12.70
2022-10-22T16:44:24.094Z,12.60
2022-10-22T16:46:51.168Z,12.40
2022-10-22T16:49:18.171Z,12.40
2022-10-22T16:51:45.323Z,12.30
2022-10-22T16:54:14.038Z,12.30
2022-10-22T16:56:41.143Z,12.30
2022-10-22T16:59:08.293Z,12.30
2022-10-22T17:01:40.329Z,12.20
2022-10-22T17:04:08.522Z,12.10
2022-10-22T17:06:35.446Z,12.00
2022-10-22T17:09:02.702Z,12.00
2022-10-22T17:11:34.671Z,12.00
2022-10-22T17:14:02.775Z,11.90
2022-10-22T17:16:30.034Z,11.90
2022-10-22T17:18:58.185Z,11.90
2022-10-22T17:21:25.661Z,11.80
2022-10-22T17:23:57.158Z,11.80
2022-10-22T17:26:26.661Z,11.80
2022-10-22T17:28:54.451Z,11.80
2022-10-22T17:31:39.243Z,11.80
2022-10-22T17:34:09.912Z,11.70
2022-10-22T17:36:37.295Z,11.60
2022-10-22T17:39:07.611Z,11.50
2022-10-22T17:41:37.295Z,11.50
2022-10-22T17:44:08.730Z,11.50
2022-10-22T17:46:35.916Z,11.40
2022-10-22T17:49:08.046Z,11.30
2022-10-22T17:51:35.166Z,11.20
2022-10-22T17:54:04.632Z,11.20
2022-10-22T17:56:34.424Z,11.10
2022-10-22T17:59:02.260Z,11.10
2022-10-22T18:01:33.559Z,11.10
2022-10-22T18:04:10.810Z,11.10
2022-10-22T18:06:38.153Z,11.00
2022-10-22T18:09:08.143Z,10.90
2022-10-22T18:11:36.547Z,10.90
2022-10-22T18:14:04.535Z,10.80
2022-10-22T18:16:31.903Z,10.80
2022-10-22T18:18:59.132Z,10.70
2022-10-22T18:21:29.197Z,10.70
2022-10-22T18:23:59.413Z,10.70
2022-10-22T18:26:27.166Z,10.60
2022-10-22T18:28:56.475Z,10.60
2022-10-22T18:31:26.296Z,10.50
2022-10-22T18:36:27.396Z,10.50
2022-10-22T18:39:02.428Z,10.40
2022-10-22T18:41:31.638Z,10.40
2022-10-22T18:44:05.327Z,10.40
2022-10-22T18:46:38.215Z,10.30
2022-10-22T18:49:07.094Z,10.30
2022-10-22T18:51:35.630Z,10.20
2022-10-22T18:54:05.978Z,10.20
2022-10-22T18:56:45.124Z,10.20
2022-10-22T18:59:20.690Z,10.10
2022-10-22T19:01:48.047Z,10.10
2022-10-22T19:04:15.504Z,10.10
2022-10-22T19:06:45.222Z,10.10
2022-10-22T19:09:15.289Z,10.10
2022-10-22T19:11:44.805Z,10.00
2022-10-22T19:14:13.919Z,10.00
2022-10-22T19:16:41.126Z,10.00
2022-10-22T19:19:08.366Z,9.90
2022-10-22T19:21:36.929Z,9.90
2022-10-22T19:24:04.170Z,9.90
2022-10-22T19:26:31.448Z,9.80
2022-10-22T19:28:59.988Z,9.80
2022-10-22T19:31:29.937Z,9.90
2022-10-22T19:33:59.437Z,9.80
2022-10-22T19:36:30.162Z,9.80
2022-10-22T19:38:58.573Z,9.80
2022-10-22T19:41:28.244Z,9.70
2022-10-22T19:43:57.489Z,9.70
2022-10-22T19:46:26.114Z,9.70
2022-10-22T19:48:56.183Z,9.70
2022-10-22T19:51:27.646Z,9.60
2022-10-22T19:54:01.143Z,9.60
2022-10-22T19:56:29.307Z,9.60
2022-10-22T19:58:56.838Z,9.70
2022-10-22T20:01:24.224Z,9.70
2022-10-22T20:03:52.297Z,9.70
2022-10-22T20:06:20.120Z,9.80
2022-10-22T20:08:47.867Z,9.80
2022-10-22T20:11:22.500Z,9.80
2022-10-22T20:13:52.174Z,9.80
2022-10-22T20:16:24.504Z,9.80
2022-10-22T20:18:52.777Z,9.80
2022-10-22T20:21:21.215Z,9.80
2022-10-22T20:23:52.186Z,9.80
2022-10-22T20:26:20.957Z,9.80
2022-10-22T20:28:47.942Z,9.90
2022-10-22T20:31:19.775Z,9.90
2022-10-22T20:33:48.482Z,9.90
2022-10-22T20:36:21.701Z,9.90
2022-10-22T20:38:50.484Z,10.00
2022-10-22T20:41:22.928Z,9.90
2022-10-22T20:43:52.089Z,9.90
2022-10-22T20:46:22.351Z,9.90
2022-10-22T20:48:57.597Z,9.90
2022-10-22T20:51:24.753Z,10.00
2022-10-22T20:53:51.811Z,10.00
2022-10-22T20:56:19.934Z,10.00
2022-10-22T20:58:48.702Z,10.00
2022-10-22T21:01:24.037Z,9.90
2022-10-22T21:03:53.126Z,9.90
2022-10-22T21:06:23.028Z,9.80
2022-10-22T21:08:51.532Z,9.80
2022-10-22T21:11:19.890Z,9.80
2022-10-22T21:13:47.099Z,9.80
2022-10-22T21:16:17.714Z,9.70
2022-10-22T21:18:46.059Z,9.70
2022-10-22T21:21:13.481Z,9.70
2022-10-22T21:23:40.481Z,9.70
2022-10-22T21:26:07.463Z,9.70
2022-10-22T21:28:36.740Z,9.70
2022-10-22T21:31:09.976Z,9.60
2022-10-22T21:33:39.187Z,9.60
2022-10-22T21:36:08.891Z,9.60
2022-10-22T21:38:37.629Z,9.50
2022-10-22T21:41:07.261Z,9.50
2022-10-22T21:43:36.510Z,9.50
2022-10-22T21:46:07.957Z,9.40
2022-10-22T21:48:36.915Z,9.40
2022-10-22T21:51:10.735Z,9.40
2022-10-22T21:53:38.468Z,9.40
2022-10-22T21:56:07.387Z,9.40
2022-10-22T21:58:36.181Z,9.40
2022-10-22T22:01:04.468Z,9.40
2022-10-22T22:03:31.531Z,9.40
2022-10-22T22:06:05.031Z,9.40
2022-10-22T22:08:33.386Z,9.40
2022-10-22T22:11:04.549Z,9.40
2022-10-22T22:13:32.898Z,9.40
2022-10-22T22:16:02.245Z,9.40
2022-10-22T22:18:29.865Z,9.40
2022-10-22T22:20:58.165Z,9.50
2022-10-22T22:23:26.548Z,9.50
2022-10-22T22:25:53.474Z,9.50
2022-10-22T22:28:20.401Z,9.50
2022-10-22T22:30:47.488Z,9.50
2022-10-22T22:33:14.409Z,9.50
2022-10-22T22:35:41.370Z,9.50
2022-10-22T22:38:08.416Z,9.50
2022-10-22T22:40:39.050Z,9.50
2022-10-22T22:43:05.945Z,9.50
2022-10-22T22:45:33.111Z,9.60
2022-10-22T22:48:00.058Z,9.60
2022-10-22T22:50:27.130Z,9.60
2022-10-22T22:52:54.178Z,9.60
2022-10-22T22:55:21.120Z,9.60
2022-10-22T22:57:48.240Z,9.60
2022-10-22T23:00:15.763Z,9.60
2022-10-22T23:02:43.068Z,9.60
2022-10-22T23:05:10.255Z,9.60
2022-10-22T23:07:37.275Z,9.60
2022-10-22T23:10:04.438Z,9.60
2022-10-22T23:12:31.353Z,9.60
2022-10-22T23:15:01.981Z,9.60
2022-10-22T23:17:29.008Z,9.70
2022-10-22T23:19:55.968Z,9.70
2022-10-22T23:22:22.891Z,9.70
2022-10-22T23:24:49.845Z,9.70
2022-10-22T23:27:16.795Z,9.70
2022-10-22T23:29:43.740Z,9.70
2022-10-22T23:32:14.500Z,9.70
2022-10-22T23:34:41.553Z,9.70
2022-10-22T23:37:11.584Z,9.80
2022-10-22T23:39:38.565Z,9.80
2022-10-22T23:42:05.555Z,9.80
2022-10-22T23:44:32.602Z,9.80
2022-10-22T23:46:59.551Z,9.80
2022-10-22T23:49:26.509Z,9.80
2022-10-22T23:51:53.577Z,9.80
2022-10-22T23:54:20.508Z,9.90
2022-10-22T23:56:47.615Z,9.90
